EmailTwitter


Observations de surface / Québec / EGGD

Régions: Québec | Canada | États-Unis | Europe | France | UK | Elsewhere
Station
Affichage
Infos & localisation pour EGGD | Aide pour décoder les METARs

Observations prises le 2017-02-24 à 09H50 UTC à BRISTOL/LULSGATE, UK (EGGD)

Température: 5.0 Celsius

Point de rosée: 2.0 Celsius

Humidité relative: 81%

Facteur vent: 1.

Vents: Ouest-nord-ouest à 22 km/h ou 12 noeuds.

Pression au niveau moyen de la mer: 101.80 kilopascals.

Visibilité horizontale: 6.21 milles terrestres ou 9.94 kilomètres.

Observation METAR:

EGGD 240950Z AUTO 29012KT 9999 NCD 05/02 Q1018=